createdAt,value
2022-11-09T00:00:08.622Z,83.80
2022-11-09T00:02:36.171Z,83.40
2022-11-09T00:05:05.273Z,83.20
2022-11-09T00:07:32.050Z,82.80
2022-11-09T00:09:58.809Z,83.10
2022-11-09T00:12:25.635Z,83.20
2022-11-09T00:14:52.398Z,82.10
2022-11-09T00:17:19.230Z,82.20
2022-11-09T00:19:45.961Z,81.80
2022-11-09T00:22:12.730Z,81.30
2022-11-09T00:24:39.466Z,85.30
2022-11-09T00:27:06.172Z,83.80
2022-11-09T00:29:32.967Z,84.60
2022-11-09T00:31:59.718Z,82.20
2022-11-09T00:34:26.447Z,82.70
2022-11-09T00:36:53.189Z,79.30
2022-11-09T00:39:19.998Z,84.00
2022-11-09T00:41:46.775Z,84.60
2022-11-09T00:44:13.521Z,87.90
2022-11-09T00:46:40.466Z,88.30
2022-11-09T00:49:07.203Z,90.80
2022-11-09T00:51:35.496Z,91.60
2022-11-09T00:54:02.330Z,92.20
2022-11-09T00:56:29.160Z,92.30
2022-11-09T00:58:56.029Z,92.80
2022-11-09T01:01:22.925Z,93.20
2022-11-09T01:03:49.742Z,95.70
2022-11-09T01:06:17.409Z,97.10
2022-11-09T01:08:44.371Z,99.10
2022-11-09T01:11:11.246Z,99.90
2022-11-09T01:13:38.090Z,99.90
2022-11-09T01:16:08.256Z,99.90
2022-11-09T01:18:36.377Z,99.90
2022-11-09T01:21:03.970Z,99.90
2022-11-09T01:23:31.628Z,99.90
2022-11-09T01:25:59.567Z,99.90
2022-11-09T01:28:26.360Z,99.90
2022-11-09T01:30:53.130Z,99.90
2022-11-09T01:33:20.061Z,99.90
2022-11-09T01:35:47.000Z,99.90
2022-11-09T01:38:13.746Z,99.90
2022-11-09T01:40:40.674Z,99.90
2022-11-09T01:43:14.194Z,99.90
2022-11-09T01:45:41.032Z,99.90
2022-11-09T01:48:18.833Z,99.90
2022-11-09T01:50:45.573Z,99.90
2022-11-09T01:53:13.909Z,99.90
2022-11-09T01:55:40.637Z,99.90
2022-11-09T01:58:08.714Z,99.90
2022-11-09T02:00:37.403Z,99.90
2022-11-09T02:03:09.694Z,99.90
2022-11-09T02:05:36.731Z,99.90
2022-11-09T02:08:03.580Z,99.90
2022-11-09T02:10:33.417Z,99.90
2022-11-09T02:13:00.692Z,99.90
2022-11-09T02:15:27.416Z,99.90
2022-11-09T02:17:54.893Z,99.90
2022-11-09T02:20:21.908Z,99.90
2022-11-09T02:22:48.707Z,99.90
2022-11-09T02:25:15.819Z,99.90
2022-11-09T02:27:42.740Z,99.90
2022-11-09T02:30:09.854Z,99.90
2022-11-09T02:32:36.723Z,99.90
2022-11-09T02:35:03.589Z,99.90
2022-11-09T02:37:32.696Z,99.90
2022-11-09T02:39:59.404Z,99.90
2022-11-09T02:42:26.291Z,99.90
2022-11-09T02:44:54.793Z,99.90
2022-11-09T02:47:22.015Z,99.90
2022-11-09T02:49:50.142Z,99.90
2022-11-09T02:52:17.241Z,99.90
2022-11-09T02:54:45.381Z,99.90
2022-11-09T02:57:12.610Z,99.90
2022-11-09T02:59:39.414Z,99.90
2022-11-09T03:02:06.733Z,99.90
2022-11-09T03:04:33.518Z,99.90
2022-11-09T03:07:01.501Z,99.90
2022-11-09T03:09:29.741Z,99.90
2022-11-09T03:11:56.744Z,99.90
2022-11-09T03:14:24.483Z,99.90
2022-11-09T03:16:55.297Z,99.90
2022-11-09T03:19:22.407Z,99.90
2022-11-09T03:21:51.560Z,99.90
2022-11-09T03:24:22.562Z,99.90
2022-11-09T03:26:51.712Z,99.90
2022-11-09T03:29:18.819Z,99.90
2022-11-09T03:31:45.604Z,99.90
2022-11-09T03:34:12.863Z,99.90
2022-11-09T03:36:39.600Z,99.90
2022-11-09T03:39:06.355Z,99.90
2022-11-09T03:41:35.855Z,99.90
2022-11-09T03:44:02.611Z,99.90
2022-11-09T03:46:29.343Z,99.90
2022-11-09T03:48:56.078Z,99.90
2022-11-09T03:51:22.831Z,99.90
2022-11-09T03:53:49.563Z,99.90
2022-11-09T03:56:16.321Z,99.90
2022-11-09T03:58:43.054Z,99.90
2022-11-09T04:01:10.962Z,99.90
2022-11-09T04:03:37.821Z,99.90
2022-11-09T04:06:04.658Z,99.90
2022-11-09T04:08:31.422Z,99.90
2022-11-09T04:10:58.180Z,99.90
2022-11-09T04:13:24.945Z,99.90
2022-11-09T04:15:51.721Z,99.90
2022-11-09T04:18:18.672Z,99.90
2022-11-09T04:20:45.410Z,99.90
2022-11-09T04:23:12.605Z,99.90
2022-11-09T04:25:39.808Z,99.90
2022-11-09T04:28:07.011Z,99.90
2022-11-09T04:30:34.873Z,99.90
2022-11-09T04:33:01.734Z,99.90
2022-11-09T04:35:29.099Z,99.90
2022-11-09T04:37:56.480Z,99.90
2022-11-09T04:40:23.437Z,99.90
2022-11-09T04:42:50.273Z,99.90
2022-11-09T04:45:17.065Z,99.90
2022-11-09T04:47:43.898Z,99.90
2022-11-09T04:50:10.818Z,99.90
2022-11-09T04:52:37.631Z,99.90
2022-11-09T04:55:04.866Z,99.90
2022-11-09T04:57:31.625Z,99.90
2022-11-09T04:59:58.406Z,99.90
2022-11-09T05:02:25.243Z,99.90
2022-11-09T05:04:52.118Z,99.90
2022-11-09T05:07:18.967Z,99.90
2022-11-09T05:09:45.742Z,99.90
2022-11-09T05:12:12.519Z,99.90
2022-11-09T05:14:39.239Z,99.90
2022-11-09T05:17:06.775Z,99.90
2022-11-09T05:19:33.524Z,99.90
2022-11-09T05:22:20.301Z,99.90
2022-11-09T05:24:47.084Z,99.90
2022-11-09T05:27:13.773Z,99.90
2022-11-09T05:29:40.486Z,99.90
2022-11-09T05:32:07.235Z,99.90
2022-11-09T05:34:33.968Z,99.90
2022-11-09T05:37:03.517Z,99.90
2022-11-09T05:39:30.605Z,99.90
2022-11-09T05:41:57.342Z,99.90
2022-11-09T05:44:24.393Z,99.90
2022-11-09T05:46:51.156Z,99.90
2022-11-09T05:49:17.916Z,99.90
2022-11-09T05:51:44.654Z,99.90
2022-11-09T05:54:11.411Z,99.90
2022-11-09T05:56:38.375Z,99.90
2022-11-09T05:59:05.143Z,99.90
2022-11-09T06:01:31.873Z,99.90
2022-11-09T06:03:58.639Z,99.90
2022-11-09T06:06:25.499Z,99.90
2022-11-09T06:08:52.271Z,99.90
2022-11-09T06:11:24.031Z,99.90
2022-11-09T06:13:51.775Z,99.90
2022-11-09T06:16:18.531Z,99.90
2022-11-09T06:18:45.277Z,99.90
2022-11-09T06:21:12.114Z,99.90
2022-11-09T06:23:38.925Z,99.90
2022-11-09T06:26:12.294Z,99.90
2022-11-09T06:28:39.187Z,99.90
2022-11-09T06:31:07.047Z,99.90
2022-11-09T06:33:34.123Z,99.90
2022-11-09T06:36:00.976Z,99.90
2022-11-09T06:38:27.824Z,99.90
2022-11-09T06:40:55.072Z,99.90
2022-11-09T06:43:22.262Z,99.90
2022-11-09T06:45:49.784Z,99.90
2022-11-09T06:48:16.508Z,99.90
2022-11-09T06:50:43.456Z,99.90
2022-11-09T06:53:10.781Z,99.90
2022-11-09T06:55:37.619Z,99.90
2022-11-09T06:58:07.862Z,99.90
2022-11-09T07:00:34.684Z,99.90
2022-11-09T07:03:01.463Z,99.90
2022-11-09T07:05:28.263Z,99.90
2022-11-09T07:07:54.974Z,99.90
2022-11-09T07:10:21.781Z,99.90
2022-11-09T07:12:48.706Z,99.90
2022-11-09T07:15:15.543Z,99.90
2022-11-09T07:17:42.882Z,99.90
2022-11-09T07:20:10.150Z,99.90
2022-11-09T07:22:39.986Z,99.90
2022-11-09T07:25:08.018Z,99.90
2022-11-09T07:27:35.234Z,99.90
2022-11-09T07:30:02.118Z,99.90
2022-11-09T07:33:02.059Z,99.90
2022-11-09T07:35:15.744Z,99.90
2022-11-09T07:37:42.495Z,99.90
2022-11-09T07:40:09.382Z,99.90
2022-11-09T07:42:36.251Z,99.90
2022-11-09T07:45:03.101Z,99.90
2022-11-09T07:47:30.060Z,99.90
2022-11-09T07:49:56.871Z,99.90
2022-11-09T07:52:23.637Z,99.90
2022-11-09T07:54:52.326Z,99.90
2022-11-09T07:57:19.328Z,99.90
2022-11-09T07:59:46.064Z,99.90
2022-11-09T08:02:13.106Z,99.90
2022-11-09T08:04:39.962Z,99.90
2022-11-09T08:07:06.826Z,99.90
2022-11-09T08:09:34.032Z,99.90
2022-11-09T08:12:00.907Z,99.90
2022-11-09T08:14:27.758Z,99.90
2022-11-09T08:16:55.370Z,99.90
2022-11-09T08:19:22.263Z,99.90
2022-11-09T08:21:49.112Z,99.90
2022-11-09T08:24:15.999Z,99.90
2022-11-09T08:26:42.794Z,99.90
2022-11-09T08:29:09.941Z,99.90
2022-11-09T08:31:37.052Z,99.90
2022-11-09T08:34:03.810Z,99.90
2022-11-09T08:36:31.446Z,99.90
2022-11-09T08:38:59.315Z,99.90
2022-11-09T08:41:26.151Z,99.90
2022-11-09T08:43:52.966Z,99.90
2022-11-09T08:46:19.813Z,99.90
2022-11-09T08:48:47.033Z,99.90
2022-11-09T08:51:13.849Z,99.90
2022-11-09T08:53:40.631Z,99.90
2022-11-09T08:56:07.964Z,99.90
2022-11-09T08:58:34.934Z,99.90
2022-11-09T09:01:01.823Z,99.90
2022-11-09T09:03:28.624Z,99.90
2022-11-09T09:05:55.396Z,99.90
2022-11-09T09:08:23.472Z,99.90
2022-11-09T09:10:50.564Z,99.90
2022-11-09T09:13:19.255Z,99.90
2022-11-09T09:15:46.117Z,99.90
2022-11-09T09:18:12.939Z,99.90
2022-11-09T09:20:39.771Z,99.90
2022-11-09T09:23:06.489Z,99.90
2022-11-09T09:25:33.723Z,99.90
2022-11-09T09:28:00.448Z,99.90
2022-11-09T09:30:27.299Z,99.90
2022-11-09T09:32:57.556Z,99.90
2022-11-09T09:35:24.304Z,99.90
2022-11-09T09:37:51.025Z,99.90
2022-11-09T09:40:23.048Z,99.90
2022-11-09T09:42:49.827Z,99.90
2022-11-09T09:45:16.585Z,99.90
2022-11-09T09:47:43.319Z,99.90
2022-11-09T09:50:14.246Z,99.90
2022-11-09T09:52:50.623Z,99.90
2022-11-09T09:55:32.138Z,99.90
2022-11-09T09:58:06.569Z,99.90
2022-11-09T10:00:33.397Z,99.90
2022-11-09T10:03:00.157Z,99.90
2022-11-09T10:05:29.760Z,99.90
2022-11-09T10:08:08.841Z,99.90
2022-11-09T10:10:37.618Z,99.90
2022-11-09T10:13:10.639Z,99.90
2022-11-09T10:15:52.817Z,99.90
2022-11-09T10:18:38.257Z,99.90
2022-11-09T10:21:24.176Z,99.90
2022-11-09T10:23:56.785Z,99.90
2022-11-09T10:26:25.891Z,99.90
2022-11-09T10:29:15.149Z,99.90
2022-11-09T10:31:41.132Z,99.90
2022-11-09T10:34:17.032Z,99.90
2022-11-09T10:36:54.299Z,99.90
2022-11-09T10:39:21.504Z,99.90
2022-11-09T10:42:08.749Z,99.90
2022-11-09T10:44:53.981Z,99.90
2022-11-09T10:47:48.734Z,99.90
2022-11-09T10:50:39.967Z,99.90
2022-11-09T10:53:25.789Z,99.90
2022-11-09T10:56:10.944Z,99.90
2022-11-09T10:58:56.386Z,99.90
2022-11-09T11:01:41.588Z,99.90
2022-11-09T11:04:27.179Z,99.90
2022-11-09T11:07:20.755Z,99.90
2022-11-09T11:10:25.151Z,99.90
2022-11-09T11:13:10.200Z,99.90
2022-11-09T11:15:55.647Z,99.90
2022-11-09T11:18:43.985Z,99.90
2022-11-09T11:21:29.259Z,99.90
2022-11-09T11:24:18.620Z,99.90
2022-11-09T11:27:10.873Z,99.90
2022-11-09T11:30:02.704Z,99.90
2022-11-09T11:32:50.681Z,99.90
2022-11-09T11:35:37.824Z,99.90
2022-11-09T11:38:34.894Z,99.90
2022-11-09T11:41:32.753Z,99.90
2022-11-09T11:44:37.224Z,99.90
2022-11-09T11:47:25.177Z,99.90
2022-11-09T11:50:13.573Z,99.90
2022-11-09T11:53:17.543Z,99.90
2022-11-09T11:56:15.645Z,99.90
2022-11-09T11:59:04.021Z,99.90
2022-11-09T12:02:02.632Z,99.90
2022-11-09T12:04:47.977Z,99.90
2022-11-09T12:07:41.948Z,99.90
2022-11-09T12:10:28.664Z,99.90
2022-11-09T12:13:18.265Z,99.90
2022-11-09T12:16:15.739Z,99.90
2022-11-09T12:19:25.456Z,99.90
2022-11-09T12:22:20.519Z,99.90
2022-11-09T12:25:09.107Z,99.90
2022-11-09T12:27:54.249Z,99.90
2022-11-09T12:30:58.245Z,99.90
2022-11-09T12:34:00.332Z,99.90
2022-11-09T12:36:56.017Z,99.90
2022-11-09T12:39:43.245Z,99.90
2022-11-09T12:42:44.227Z,99.90
2022-11-09T12:45:29.655Z,99.90
2022-11-09T12:48:17.496Z,99.90
2022-11-09T12:51:03.260Z,99.90
2022-11-09T12:53:48.663Z,99.90
2022-11-09T12:56:35.059Z,99.90
2022-11-09T12:59:26.705Z,99.90
2022-11-09T13:02:19.367Z,99.90
2022-11-09T13:05:05.834Z,99.90
2022-11-09T13:07:51.644Z,99.90
2022-11-09T13:10:37.430Z,99.90
2022-11-09T13:13:24.260Z,99.90
2022-11-09T13:16:13.023Z,99.90
2022-11-09T13:18:58.278Z,99.90
2022-11-09T13:21:43.361Z,99.90
2022-11-09T13:24:31.498Z,99.90
2022-11-09T13:27:35.451Z,99.90
2022-11-09T13:30:28.595Z,99.90
2022-11-09T13:33:21.165Z,99.90
2022-11-09T13:36:06.829Z,99.90
2022-11-09T13:39:10.898Z,99.90
2022-11-09T13:41:56.109Z,99.90
2022-11-09T13:44:43.355Z,99.90
2022-11-09T13:47:34.245Z,99.90
2022-11-09T13:50:19.939Z,99.90
2022-11-09T13:53:22.377Z,99.90
2022-11-09T13:56:28.189Z,99.90
2022-11-09T13:59:13.621Z,99.90
2022-11-09T14:01:59.562Z,99.90
2022-11-09T14:04:45.132Z,99.90
2022-11-09T14:07:32.981Z,99.90
2022-11-09T14:10:24.488Z,99.90
2022-11-09T14:13:12.663Z,99.90
2022-11-09T14:16:00.725Z,99.90
2022-11-09T14:19:04.973Z,99.90
2022-11-09T14:21:53.359Z,99.90
2022-11-09T14:24:38.906Z,99.90
2022-11-09T14:27:23.987Z,99.90
2022-11-09T14:30:20.639Z,99.90
2022-11-09T14:33:25.764Z,99.90
2022-11-09T14:36:10.911Z,99.90
2022-11-09T14:38:58.047Z,99.90
2022-11-09T14:41:43.662Z,99.90
2022-11-09T14:44:29.790Z,99.90
2022-11-09T14:47:18.802Z,99.90
2022-11-09T14:50:04.126Z,99.90
2022-11-09T14:52:50.321Z,99.90
2022-11-09T14:55:37.055Z,99.90
2022-11-09T14:58:22.442Z,99.90
2022-11-09T15:01:17.669Z,99.90
2022-11-09T15:04:06.318Z,99.90
2022-11-09T15:06:53.270Z,99.90
2022-11-09T15:09:43.094Z,99.90
2022-11-09T15:12:29.954Z,99.90
2022-11-09T15:15:17.591Z,99.90
2022-11-09T15:18:02.785Z,99.90
2022-11-09T15:20:47.894Z,99.90
2022-11-09T15:23:40.458Z,99.90
2022-11-09T15:26:25.641Z,99.90
2022-11-09T15:29:26.051Z,99.90
2022-11-09T15:32:11.250Z,99.90
2022-11-09T15:34:57.313Z,99.90
2022-11-09T15:37:49.596Z,99.90
2022-11-09T15:40:34.634Z,99.90
2022-11-09T15:43:19.970Z,99.90
2022-11-09T15:46:05.360Z,99.90
2022-11-09T15:48:50.662Z,99.90
2022-11-09T15:51:36.000Z,99.90
2022-11-09T15:54:21.571Z,99.90
2022-11-09T15:57:06.717Z,99.90
2022-11-09T15:59:51.970Z,99.90
2022-11-09T16:02:37.344Z,99.90
2022-11-09T16:05:25.540Z,99.90
2022-11-09T16:08:10.653Z,99.90
2022-11-09T16:10:55.761Z,99.90
2022-11-09T16:13:40.801Z,99.90
2022-11-09T16:16:26.068Z,99.90
2022-11-09T16:19:14.482Z,99.90
2022-11-09T16:22:02.149Z,99.90
2022-11-09T16:24:48.366Z,99.90
2022-11-09T16:27:50.918Z,99.90
2022-11-09T16:30:36.698Z,99.90
2022-11-09T16:33:21.783Z,99.90
2022-11-09T16:36:11.354Z,99.90
2022-11-09T16:38:56.369Z,99.90
2022-11-09T16:41:41.995Z,99.90
2022-11-09T16:44:30.581Z,99.90
2022-11-09T16:47:16.608Z,99.90
2022-11-09T16:50:01.999Z,99.90
2022-11-09T16:52:47.091Z,99.90
2022-11-09T16:55:32.254Z,99.90
2022-11-09T16:58:17.466Z,99.90
2022-11-09T17:01:12.555Z,99.90
2022-11-09T17:03:58.688Z,99.90
2022-11-09T17:06:44.266Z,99.90
2022-11-09T17:09:32.990Z,99.90
2022-11-09T17:12:18.317Z,99.90
2022-11-09T17:15:03.493Z,99.90
2022-11-09T17:17:49.062Z,99.90
2022-11-09T17:20:34.127Z,99.90
2022-11-09T17:23:19.356Z,99.90
2022-11-09T17:26:04.898Z,99.90
2022-11-09T17:28:49.976Z,99.90
2022-11-09T17:31:35.180Z,99.90
2022-11-09T17:34:20.357Z,99.90
2022-11-09T17:37:06.077Z,99.90
2022-11-09T17:39:51.676Z,99.90
2022-11-09T17:42:36.938Z,99.90
2022-11-09T17:45:21.936Z,99.90
2022-11-09T17:48:07.468Z,99.90
2022-11-09T17:50:53.060Z,99.90
2022-11-09T17:53:38.157Z,99.90
2022-11-09T17:56:23.508Z,99.90
2022-11-09T17:59:08.659Z,99.90
2022-11-09T18:01:54.343Z,99.90
2022-11-09T18:04:39.620Z,99.90
2022-11-09T18:07:25.348Z,99.90
2022-11-09T18:10:10.595Z,99.90
2022-11-09T18:12:55.708Z,99.90
2022-11-09T18:15:41.397Z,99.90
2022-11-09T18:18:28.927Z,99.90
2022-11-09T18:21:18.155Z,99.90
2022-11-09T18:24:03.633Z,99.90
2022-11-09T18:26:49.293Z,99.90
2022-11-09T18:29:34.649Z,99.90
2022-11-09T18:32:19.883Z,99.90
2022-11-09T18:35:05.454Z,99.90
2022-11-09T18:37:50.792Z,99.90
2022-11-09T18:40:36.010Z,99.90
2022-11-09T18:43:21.173Z,99.90
2022-11-09T18:46:07.673Z,99.90
2022-11-09T18:48:53.287Z,99.90
2022-11-09T18:51:38.727Z,99.90
2022-11-09T18:54:24.176Z,99.90
2022-11-09T18:57:09.479Z,99.90
2022-11-09T18:59:55.060Z,99.90
2022-11-09T19:02:40.299Z,99.90
2022-11-09T19:05:25.879Z,99.90
2022-11-09T19:08:11.312Z,99.90
2022-11-09T19:10:56.589Z,99.90
2022-11-09T19:13:41.887Z,99.90
2022-11-09T19:16:27.311Z,99.90
2022-11-09T19:19:13.366Z,99.90
2022-11-09T19:21:58.879Z,99.90
2022-11-09T19:24:44.056Z,99.90
2022-11-09T19:27:30.396Z,99.90
2022-11-09T19:30:16.171Z,99.90
2022-11-09T19:33:01.414Z,99.90
2022-11-09T19:36:15.319Z,99.90
2022-11-09T19:38:56.213Z,99.90
2022-11-09T19:41:41.695Z,99.90
2022-11-09T19:44:27.067Z,99.90
2022-11-09T19:47:12.346Z,99.90
2022-11-09T19:49:57.758Z,99.90
2022-11-09T19:52:42.938Z,99.90
2022-11-09T19:55:28.842Z,99.90
2022-11-09T19:58:14.605Z,99.90
2022-11-09T20:01:03.793Z,99.90
2022-11-09T20:03:50.353Z,99.90
2022-11-09T20:06:36.533Z,99.90
2022-11-09T20:09:22.155Z,99.90
2022-11-09T20:12:26.144Z,99.90
2022-11-09T20:15:12.207Z,99.90
2022-11-09T20:17:57.935Z,99.90
2022-11-09T20:20:43.149Z,99.90
2022-11-09T20:23:28.587Z,99.90
2022-11-09T20:26:14.182Z,99.90
2022-11-09T20:28:59.576Z,99.90
2022-11-09T20:31:44.876Z,99.90
2022-11-09T20:34:31.190Z,99.90
2022-11-09T20:37:17.109Z,99.90
2022-11-09T20:40:02.470Z,99.90
2022-11-09T20:42:48.012Z,99.90
2022-11-09T20:45:35.656Z,99.90
2022-11-09T20:48:47.042Z,99.90
2022-11-09T20:51:28.678Z,99.90
2022-11-09T20:54:17.063Z,99.90
2022-11-09T20:57:02.491Z,99.90
2022-11-09T20:59:47.901Z,99.90
2022-11-09T21:02:33.436Z,99.90
2022-11-09T21:05:18.829Z,99.90
2022-11-09T21:08:04.234Z,99.90
2022-11-09T21:10:49.465Z,99.90
2022-11-09T21:13:34.750Z,99.90
2022-11-09T21:16:20.154Z,99.90
2022-11-09T21:19:05.386Z,99.90
2022-11-09T21:21:51.841Z,99.90
2022-11-09T21:24:56.024Z,99.90
2022-11-09T21:28:00.197Z,99.90
2022-11-09T21:30:45.569Z,99.90
2022-11-09T21:33:30.723Z,99.90
2022-11-09T21:36:15.947Z,99.90
2022-11-09T21:39:01.546Z,99.90
2022-11-09T21:41:47.068Z,99.90
2022-11-09T21:44:32.498Z,99.90
2022-11-09T21:47:18.309Z,99.90
2022-11-09T21:50:08.230Z,99.90
2022-11-09T21:52:56.461Z,99.90
2022-11-09T21:55:41.664Z,99.90
2022-11-09T21:58:26.837Z,99.90
2022-11-09T22:01:12.102Z,99.90
2022-11-09T22:03:57.748Z,99.90
2022-11-09T22:06:43.420Z,99.90
2022-11-09T22:09:35.726Z,99.90
2022-11-09T22:12:49.060Z,99.90
2022-11-09T22:15:53.099Z,99.90
2022-11-09T22:18:57.356Z,99.90
2022-11-09T22:21:42.938Z,99.90
2022-11-09T22:24:27.945Z,99.90
2022-11-09T22:27:13.149Z,99.90
2022-11-09T22:29:58.190Z,99.90
2022-11-09T22:32:43.252Z,99.90
2022-11-09T22:35:28.601Z,99.90
2022-11-09T22:38:13.757Z,99.90
2022-11-09T22:40:59.740Z,99.90
2022-11-09T22:43:45.308Z,99.90
2022-11-09T22:46:30.792Z,99.90
2022-11-09T22:49:17.297Z,99.90
2022-11-09T22:52:03.394Z,99.90
2022-11-09T22:54:48.844Z,99.90
2022-11-09T22:57:34.151Z,99.90
2022-11-09T23:00:19.686Z,99.90
2022-11-09T23:03:04.882Z,99.90
2022-11-09T23:05:49.913Z,99.90
2022-11-09T23:08:38.185Z,99.90
2022-11-09T23:11:23.701Z,99.90
2022-11-09T23:14:08.968Z,99.90
2022-11-09T23:16:54.259Z,99.90
2022-11-09T23:19:39.357Z,99.90
2022-11-09T23:22:24.533Z,99.90
2022-11-09T23:25:28.407Z,99.90
2022-11-09T23:28:13.761Z,99.90
2022-11-09T23:31:00.125Z,99.90
2022-11-09T23:33:47.286Z,99.90
2022-11-09T23:36:32.992Z,99.90
2022-11-09T23:39:18.435Z,99.90
2022-11-09T23:42:03.477Z,99.90
2022-11-09T23:44:48.688Z,99.90
2022-11-09T23:47:33.782Z,99.90
2022-11-09T23:50:19.125Z,99.90
2022-11-09T23:53:04.586Z,99.90
2022-11-09T23:55:50.156Z,99.90
2022-11-09T23:58:35.517Z,99.90
